Crystal Island — 3EZJ3 — position and weather

sailwx.info

Track history (hours):
 
Tides and Currents Weather Stations Pressure Air Temp Water Temp Dewpoint Dewpoint Depression Visibility Wind Speed Wind Dir Waves Ship Positions

Crystal Island

Last reported at 2014-Jul-28 09:30 UTC. Time now 2014-Jul-29 18:54 UTC.
Position N 34°52' E 139°21'.

Length 169 m; draft 6.6 m.

Type: Cargo ship. MMSI: 372562000.

Date/timePositionNaut miles runAvg speedWind from/ knotsBaromVisibWave heightAir tempDewpointWater temp
2014-Jul-28 09:30N 34°52' E 139°21'1212.3
2014-Jul-28 08:33N 34°59' E 139°32'1212.4
2014-Jul-28 07:34N 35°07' E 139°44'1110.8
2014-Jul-28 06:34N 35°18' E 139°44'1010.0
2014-Jul-28 05:33N 35°27' E 139°48'1212.4
2014-Jul-28 04:34N 35°34' E 140°01'4 4.0
2014-Jul-28 03:31N 35°36' E 140°05'0 0.0
2014-Jul-28 02:25N 35°36' E 140°05'0 0.0
2014-Jul-28 01:22N 35°36' E 140°05'0 0.0
2014-Jul-28 00:28N 35°36' E 140°05'0 0.0
2014-Jul-27 23:31N 35°36' E 140°05'0 0.0
2014-Jul-27 22:31N 35°36' E 140°05'0 0.0
2014-Jul-27 21:28N 35°36' E 140°05'0 0.0
2014-Jul-27 20:28N 35°36' E 140°05'0 0.0
2014-Jul-27 19:31N 35°36' E 140°05'0 0.0
2014-Jul-27 18:25N 35°36' E 140°05'0 0.0
2014-Jul-27 17:31N 35°36' E 140°05'0 0.0
2014-Jul-27 16:19N 35°36' E 140°05'0 0.0
2014-Jul-27 15:31N 35°36' E 140°05'0 0.0
2014-Jul-27 14:28N 35°36' E 140°05'0 0.0
2014-Jul-27 13:31N 35°36' E 140°05'0 0.0
2014-Jul-27 12:28N 35°36' E 140°05'0 0.0
2014-Jul-27 11:28N 35°36' E 140°05'0 0.0
2014-Jul-27 10:31N 35°36' E 140°05'0 0.0
2014-Jul-27 09:31N 35°36' E 140°05'0 0.0
2014-Jul-27 08:31N 35°36' E 140°05'0 0.0
2014-Jul-27 07:31N 35°36' E 140°05'0 0.0
2014-Jul-27 06:28N 35°36' E 140°05'0 0.0
2014-Jul-27 05:31N 35°36' E 140°05'0 0.0
2014-Jul-27 04:31N 35°36' E 140°05'0 0.0
2014-Jul-27 03:31N 35°36' E 140°05'0 0.0
2014-Jul-27 02:28N 35°36' E 140°05'0 0.0
2014-Jul-27 01:31N 35°36' E 140°05'0 0.0
2014-Jul-27 00:31N 35°36' E 140°05'0 0.0
2014-Jul-26 23:22N 35°36' E 140°05'0 0.0
2014-Jul-26 22:31N 35°36' E 140°05'0 0.0
2014-Jul-26 21:28N 35°36' E 140°05'0 0.0
2014-Jul-26 20:31N 35°36' E 140°05'0 0.0
2014-Jul-26 19:31N 35°36' E 140°05'0 0.0
2014-Jul-26 18:31N 35°36' E 140°05'0 0.0
2014-Jul-26 17:28N 35°36' E 140°05'0 0.0
2014-Jul-26 16:28N 35°36' E 140°05'0 0.0
2014-Jul-26 15:28N 35°36' E 140°05'0 0.0
2014-Jul-26 14:10N 35°36' E 140°05'0 0.0
2014-Jul-26 13:28N 35°36' E 140°05'0 0.0
2014-Jul-26 12:19N 35°36' E 140°05'0 0.0
2014-Jul-26 11:28N 35°36' E 140°05'0 0.0
2014-Jul-26 10:31N 35°36' E 140°05'0 0.0
2014-Jul-26 09:31N 35°36' E 140°05'0 0.0
2014-Jul-26 08:31N 35°36' E 140°05'0 0.0
2014-Jul-26 07:28N 35°36' E 140°05'0 0.0
2014-Jul-26 06:28N 35°36' E 140°05'0 0.0
2014-Jul-26 05:28N 35°36' E 140°05'0 0.0
2014-Jul-26 04:31N 35°36' E 140°05'0 0.0
2014-Jul-26 03:28N 35°36' E 140°05'0 0.0
2014-Jul-26 02:28N 35°36' E 140°05'0 0.0
2014-Jul-26 01:28N 35°36' E 140°05'0 0.0
2014-Jul-26 00:31N 35°36' E 140°05'0 0.0
2014-Jul-25 23:31N 35°36' E 140°05'0 0.0
2014-Jul-25 22:33N 35°36' E 140°05'5 5.2
2014-Jul-25 21:33N 35°33' E 139°60'1 1.3
2014-Jul-25 20:32N 35°32' E 139°59'0 0.0
2014-Jul-25 19:32N 35°32' E 139°59'0 0.0
2014-Jul-25 18:32N 35°32' E 139°59'0 0.0
2014-Jul-25 17:32N 35°32' E 139°59'0 0.0
2014-Jul-25 16:32N 35°32' E 139°59'0 0.0
2014-Jul-25 15:32N 35°32' E 139°59'0 0.1
2014-Jul-25 14:32N 35°32' E 139°59'0 0.0
2014-Jul-25 13:26N 35°32' E 139°59'0 0.0
2014-Jul-25 12:20N 35°32' E 139°59'0 0.0
2014-Jul-25 11:32N 35°32' E 139°59'0 0.0
2014-Jul-25 10:26N 35°32' E 139°59'0 0.5
2014-Jul-25 09:33N 35°32' E 139°58'10 9.6
2014-Jul-25 08:34N 35°35' E 139°47'0 0.5
2014-Jul-25 07:33N 35°35' E 139°47'0 0.0
2014-Jul-25 06:30N 35°35' E 139°47'0 0.0
2014-Jul-25 05:21N 35°35' E 139°47'0 0.0
2014-Jul-25 04:27N 35°35' E 139°47'0 0.0
2014-Jul-25 03:33N 35°35' E 139°47'0 0.0
2014-Jul-25 02:33N 35°35' E 139°47'0 0.0
2014-Jul-25 01:30N 35°35' E 139°47'0 0.0
2014-Jul-25 00:15N 35°35' E 139°47'0 0.0
2014-Jul-24 23:30N 35°35' E 139°47'0 0.0
2014-Jul-24 22:30N 35°35' E 139°47'4 4.4
2014-Jul-24 21:33N 35°34' E 139°51'0 0.1
2014-Jul-24 20:32N 35°34' E 139°51'0 0.0
2014-Jul-24 19:32N 35°34' E 139°51'0 0.0
2014-Jul-24 18:32N 35°34' E 139°51'0 0.0
2014-Jul-24 17:32N 35°34' E 139°51'0 0.0
2014-Jul-24 16:32N 35°34' E 139°51'0 0.0
2014-Jul-24 15:26N 35°34' E 139°51'0 0.0
2014-Jul-24 14:32N 35°34' E 139°51'0 0.0
2014-Jul-24 13:32N 35°34' E 139°51'0 0.0
2014-Jul-24 12:29N 35°34' E 139°51'0 0.1
2014-Jul-24 11:32N 35°34' E 139°51'0 0.1
2014-Jul-24 10:32N 35°34' E 139°51'0 0.1
2014-Jul-24 09:32N 35°34' E 139°51'4 4.2
2014-Jul-24 08:33N 35°30' E 139°52'7 6.6
2014-Jul-24 07:33N 35°30' E 139°44'1 1.1
2014-Jul-24 06:33N 35°29' E 139°43'0 0.0
2014-Jul-24 05:33N 35°29' E 139°43'0 0.0
2014-Jul-24 04:33N 35°29' E 139°43'0 0.0
2014-Jul-24 03:33N 35°29' E 139°43'0 0.0
2014-Jul-24 02:33N 35°29' E 139°43'0 0.0
2014-Jul-24 01:33N 35°29' E 139°43'0 0.0
2014-Jul-24 00:33N 35°29' E 139°43'0 0.0
2014-Jul-23 23:33N 35°29' E 139°43'0 0.0
2014-Jul-23 22:33N 35°29' E 139°43'3 3.0
2014-Jul-23 21:33N 35°27' E 139°45'1 0.8
2014-Jul-23 20:33N 35°27' E 139°46'9 9.1
2014-Jul-23 19:33N 35°18' E 139°44'1010.0
2014-Jul-23 18:33N 35°08' E 139°46'6 6.0
2014-Jul-23 17:33N 35°03' E 139°44'9 9.1
2014-Jul-23 16:33N 34°54' E 139°44'10 9.4
2014-Jul-23 15:28N 34°51' E 139°56'8 8.6
2014-Jul-23 14:33N 34°53' E 140°05'9 8.7
2014-Jul-23 13:33N 34°57' E 140°14'12 9.0
2014-Jul-23 12:10N 35°04' E 140°27'9 9.5
2014-Jul-23 11:11N 35°11' E 140°34'710.9
2014-Jul-23 10:32N 35°17' E 140°39'1211.9
2014-Jul-23 09:33N 35°27' E 140°47'1212.0
2014-Jul-23 08:33N 35°37' E 140°55'1010.0
2014-Jul-23 07:33N 35°46' E 140°58'1212.0
2014-Jul-23 06:32N 35°57' E 140°49'6 5.6
2014-Jul-23 05:33N 35°56' E 140°42'2 0.5
2014-Jul-23 01:16N 35°55' E 140°40'0 0.0
2014-Jul-22 23:28N 35°55' E 140°40'0 0.2
2014-Jul-22 22:32N 35°55' E 140°40'7 6.7
2014-Jul-22 21:33N 35°60' E 140°46'1 0.6
2014-Jul-22 20:32N 35°59' E 140°46'0 0.0
2014-Jul-22 19:29N 35°59' E 140°46'0 0.0
2014-Jul-22 18:32N 35°59' E 140°46'0 0.0
2014-Jul-22 17:11N 35°59' E 140°46'0 0.0
2014-Jul-22 16:29N 35°59' E 140°46'0 0.1
2014-Jul-22 15:29N 35°59' E 140°46'0 0.0
2014-Jul-22 14:20N 35°59' E 140°46'0 0.0
2014-Jul-22 13:20N 35°59' E 140°46'0 0.1
2014-Jul-22 12:32N 35°59' E 140°47'5 4.7
2014-Jul-22 11:33N 36°03' E 140°49'  
Track history (hours):
 
Tides and Currents Weather Stations Pressure Air Temp Water Temp Dewpoint Dewpoint Depression Visibility Wind Speed Wind Dir Waves Ship Positions

Crystal Island

Last reported at 2014-Jul-28 09:30 UTC. Time now 2014-Jul-29 18:54 UTC.
Position N 34°52' E 139°21'.

Length 169 m; draft 6.6 m.

Type: Cargo ship. MMSI: 372562000.

Date/timePositionNaut miles runAvg speedWind from/ knotsBaromVisibWave heightAir tempDewpointWater temp
2014-Jul-28 09:30N 34°52' E 139°21'1212.3
2014-Jul-28 08:33N 34°59' E 139°32'1212.4
2014-Jul-28 07:34N 35°07' E 139°44'1110.8
2014-Jul-28 06:34N 35°18' E 139°44'1010.0
2014-Jul-28 05:33N 35°27' E 139°48'1212.4
2014-Jul-28 04:34N 35°34' E 140°01'4 4.0
2014-Jul-28 03:31N 35°36' E 140°05'0 0.0
2014-Jul-28 02:25N 35°36' E 140°05'0 0.0
2014-Jul-28 01:22N 35°36' E 140°05'0 0.0
2014-Jul-28 00:28N 35°36' E 140°05'0 0.0
2014-Jul-27 23:31N 35°36' E 140°05'0 0.0
2014-Jul-27 22:31N 35°36' E 140°05'0 0.0
2014-Jul-27 21:28N 35°36' E 140°05'0 0.0
2014-Jul-27 20:28N 35°36' E 140°05'0 0.0
2014-Jul-27 19:31N 35°36' E 140°05'0 0.0
2014-Jul-27 18:25N 35°36' E 140°05'0 0.0
2014-Jul-27 17:31N 35°36' E 140°05'0 0.0
2014-Jul-27 16:19N 35°36' E 140°05'0 0.0
2014-Jul-27 15:31N 35°36' E 140°05'0 0.0
2014-Jul-27 14:28N 35°36' E 140°05'0 0.0
2014-Jul-27 13:31N 35°36' E 140°05'0 0.0
2014-Jul-27 12:28N 35°36' E 140°05'0 0.0
2014-Jul-27 11:28N 35°36' E 140°05'0 0.0
2014-Jul-27 10:31N 35°36' E 140°05'0 0.0
2014-Jul-27 09:31N 35°36' E 140°05'0 0.0
2014-Jul-27 08:31N 35°36' E 140°05'0 0.0
2014-Jul-27 07:31N 35°36' E 140°05'0 0.0
2014-Jul-27 06:28N 35°36' E 140°05'0 0.0
2014-Jul-27 05:31N 35°36' E 140°05'0 0.0
2014-Jul-27 04:31N 35°36' E 140°05'0 0.0
2014-Jul-27 03:31N 35°36' E 140°05'0 0.0
2014-Jul-27 02:28N 35°36' E 140°05'0 0.0
2014-Jul-27 01:31N 35°36' E 140°05'0 0.0
2014-Jul-27 00:31N 35°36' E 140°05'0 0.0
2014-Jul-26 23:22N 35°36' E 140°05'0 0.0
2014-Jul-26 22:31N 35°36' E 140°05'0 0.0
2014-Jul-26 21:28N 35°36' E 140°05'0 0.0
2014-Jul-26 20:31N 35°36' E 140°05'0 0.0
2014-Jul-26 19:31N 35°36' E 140°05'0 0.0
2014-Jul-26 18:31N 35°36' E 140°05'0 0.0
2014-Jul-26 17:28N 35°36' E 140°05'0 0.0
2014-Jul-26 16:28N 35°36' E 140°05'0 0.0
2014-Jul-26 15:28N 35°36' E 140°05'0 0.0
2014-Jul-26 14:10N 35°36' E 140°05'0 0.0
2014-Jul-26 13:28N 35°36' E 140°05'0 0.0
2014-Jul-26 12:19N 35°36' E 140°05'0 0.0
2014-Jul-26 11:28N 35°36' E 140°05'0 0.0
2014-Jul-26 10:31N 35°36' E 140°05'0 0.0
2014-Jul-26 09:31N 35°36' E 140°05'0 0.0
2014-Jul-26 08:31N 35°36' E 140°05'0 0.0
2014-Jul-26 07:28N 35°36' E 140°05'0 0.0
2014-Jul-26 06:28N 35°36' E 140°05'0 0.0
2014-Jul-26 05:28N 35°36' E 140°05'0 0.0
2014-Jul-26 04:31N 35°36' E 140°05'0 0.0
2014-Jul-26 03:28N 35°36' E 140°05'0 0.0
2014-Jul-26 02:28N 35°36' E 140°05'0 0.0
2014-Jul-26 01:28N 35°36' E 140°05'0 0.0
2014-Jul-26 00:31N 35°36' E 140°05'0 0.0
2014-Jul-25 23:31N 35°36' E 140°05'0 0.0
2014-Jul-25 22:33N 35°36' E 140°05'5 5.2
2014-Jul-25 21:33N 35°33' E 139°60'1 1.3
2014-Jul-25 20:32N 35°32' E 139°59'0 0.0
2014-Jul-25 19:32N 35°32' E 139°59'0 0.0
2014-Jul-25 18:32N 35°32' E 139°59'0 0.0
2014-Jul-25 17:32N 35°32' E 139°59'0 0.0
2014-Jul-25 16:32N 35°32' E 139°59'0 0.0
2014-Jul-25 15:32N 35°32' E 139°59'0 0.1
2014-Jul-25 14:32N 35°32' E 139°59'0 0.0
2014-Jul-25 13:26N 35°32' E 139°59'0 0.0
2014-Jul-25 12:20N 35°32' E 139°59'0 0.0
2014-Jul-25 11:32N 35°32' E 139°59'0 0.0
2014-Jul-25 10:26N 35°32' E 139°59'0 0.5
2014-Jul-25 09:33N 35°32' E 139°58'10 9.6
2014-Jul-25 08:34N 35°35' E 139°47'0 0.5
2014-Jul-25 07:33N 35°35' E 139°47'0 0.0
2014-Jul-25 06:30N 35°35' E 139°47'0 0.0
2014-Jul-25 05:21N 35°35' E 139°47'0 0.0
2014-Jul-25 04:27N 35°35' E 139°47'0 0.0
2014-Jul-25 03:33N 35°35' E 139°47'0 0.0
2014-Jul-25 02:33N 35°35' E 139°47'0 0.0
2014-Jul-25 01:30N 35°35' E 139°47'0 0.0
2014-Jul-25 00:15N 35°35' E 139°47'0 0.0
2014-Jul-24 23:30N 35°35' E 139°47'0 0.0
2014-Jul-24 22:30N 35°35' E 139°47'4 4.4
2014-Jul-24 21:33N 35°34' E 139°51'0 0.1
2014-Jul-24 20:32N 35°34' E 139°51'0 0.0
2014-Jul-24 19:32N 35°34' E 139°51'0 0.0
2014-Jul-24 18:32N 35°34' E 139°51'0 0.0
2014-Jul-24 17:32N 35°34' E 139°51'0 0.0
2014-Jul-24 16:32N 35°34' E 139°51'0 0.0
2014-Jul-24 15:26N 35°34' E 139°51'0 0.0
2014-Jul-24 14:32N 35°34' E 139°51'0 0.0
2014-Jul-24 13:32N 35°34' E 139°51'0 0.0
2014-Jul-24 12:29N 35°34' E 139°51'0 0.1
2014-Jul-24 11:32N 35°34' E 139°51'0 0.1
2014-Jul-24 10:32N 35°34' E 139°51'0 0.1
2014-Jul-24 09:32N 35°34' E 139°51'4 4.2
2014-Jul-24 08:33N 35°30' E 139°52'7 6.6
2014-Jul-24 07:33N 35°30' E 139°44'1 1.1
2014-Jul-24 06:33N 35°29' E 139°43'0 0.0
2014-Jul-24 05:33N 35°29' E 139°43'0 0.0
2014-Jul-24 04:33N 35°29' E 139°43'0 0.0
2014-Jul-24 03:33N 35°29' E 139°43'0 0.0
2014-Jul-24 02:33N 35°29' E 139°43'0 0.0
2014-Jul-24 01:33N 35°29' E 139°43'0 0.0
2014-Jul-24 00:33N 35°29' E 139°43'0 0.0
2014-Jul-23 23:33N 35°29' E 139°43'0 0.0
2014-Jul-23 22:33N 35°29' E 139°43'3 3.0
2014-Jul-23 21:33N 35°27' E 139°45'1 0.8
2014-Jul-23 20:33N 35°27' E 139°46'9 9.1
2014-Jul-23 19:33N 35°18' E 139°44'1010.0
2014-Jul-23 18:33N 35°08' E 139°46'6 6.0
2014-Jul-23 17:33N 35°03' E 139°44'9 9.1
2014-Jul-23 16:33N 34°54' E 139°44'10 9.4
2014-Jul-23 15:28N 34°51' E 139°56'8 8.6
2014-Jul-23 14:33N 34°53' E 140°05'9 8.7
2014-Jul-23 13:33N 34°57' E 140°14'12 9.0
2014-Jul-23 12:10N 35°04' E 140°27'9 9.5
2014-Jul-23 11:11N 35°11' E 140°34'710.9
2014-Jul-23 10:32N 35°17' E 140°39'1211.9
2014-Jul-23 09:33N 35°27' E 140°47'1212.0
2014-Jul-23 08:33N 35°37' E 140°55'1010.0
2014-Jul-23 07:33N 35°46' E 140°58'1212.0
2014-Jul-23 06:32N 35°57' E 140°49'6 5.6
2014-Jul-23 05:33N 35°56' E 140°42'2 0.5
2014-Jul-23 01:16N 35°55' E 140°40'0 0.0
2014-Jul-22 23:28N 35°55' E 140°40'0 0.2
2014-Jul-22 22:32N 35°55' E 140°40'7 6.7
2014-Jul-22 21:33N 35°60' E 140°46'1 0.6
2014-Jul-22 20:32N 35°59' E 140°46'0 0.0
2014-Jul-22 19:29N 35°59' E 140°46'0 0.0
2014-Jul-22 18:32N 35°59' E 140°46'0 0.0
2014-Jul-22 17:11N 35°59' E 140°46'0 0.0
2014-Jul-22 16:29N 35°59' E 140°46'0 0.1
2014-Jul-22 15:29N 35°59' E 140°46'0 0.0
2014-Jul-22 14:20N 35°59' E 140°46'0 0.0
2014-Jul-22 13:20N 35°59' E 140°46'0 0.1
2014-Jul-22 12:32N 35°59' E 140°47'5 4.7
2014-Jul-22 11:33N 36°03' E 140°49'  

Dump ship's entire track history